sensor_id;sensor_type;location;lat;lon;timestamp;P1;durP1;ratioP1;P2;durP2;ratioP2
68608;SDS011;55581;46.718;7.690;2023-02-04T00:01:03;5.13;;;1.40;;
68608;SDS011;55581;46.718;7.690;2023-02-04T00:03:31;5.17;;;1.20;;
68608;SDS011;55581;46.718;7.690;2023-02-04T00:05:56;4.53;;;1.40;;
68608;SDS011;55581;46.718;7.690;2023-02-04T00:08:22;4.80;;;1.42;;
68608;SDS011;55581;46.718;7.690;2023-02-04T00:10:49;5.20;;;1.60;;
68608;SDS011;55581;46.718;7.690;2023-02-04T00:13:15;5.97;;;1.20;;
68608;SDS011;55581;46.718;7.690;2023-02-04T00:15:40;7.30;;;1.97;;
68608;SDS011;55581;46.718;7.690;2023-02-04T00:18:06;6.90;;;2.17;;
68608;SDS011;55581;46.718;7.690;2023-02-04T00:20:31;8.17;;;2.07;;
68608;SDS011;55581;46.718;7.690;2023-02-04T00:22:57;6.82;;;2.10;;
68608;SDS011;55581;46.718;7.690;2023-02-04T00:25:23;5.97;;;1.87;;
68608;SDS011;55581;46.718;7.690;2023-02-04T00:27:48;5.57;;;1.75;;
68608;SDS011;55581;46.718;7.690;2023-02-04T00:30:13;8.40;;;2.00;;
68608;SDS011;55581;46.718;7.690;2023-02-04T00:32:39;5.83;;;1.77;;
68608;SDS011;55581;46.718;7.690;2023-02-04T00:35:04;8.13;;;2.13;;
68608;SDS011;55581;46.718;7.690;2023-02-04T00:37:33;6.60;;;1.95;;
68608;SDS011;55581;46.718;7.690;2023-02-04T00:40:01;7.65;;;2.40;;
68608;SDS011;55581;46.718;7.690;2023-02-04T00:42:26;6.73;;;1.83;;
68608;SDS011;55581;46.718;7.690;2023-02-04T00:44:52;7.23;;;1.90;;
68608;SDS011;55581;46.718;7.690;2023-02-04T00:47:18;5.43;;;2.20;;
68608;SDS011;55581;46.718;7.690;2023-02-04T00:49:43;6.13;;;2.08;;
68608;SDS011;55581;46.718;7.690;2023-02-04T00:52:09;5.90;;;1.90;;
68608;SDS011;55581;46.718;7.690;2023-02-04T00:54:34;7.33;;;2.10;;
68608;SDS011;55581;46.718;7.690;2023-02-04T00:56:59;6.10;;;2.17;;
68608;SDS011;55581;46.718;7.690;2023-02-04T00:59:27;5.95;;;2.00;;
68608;SDS011;55581;46.718;7.690;2023-02-04T01:01:52;8.30;;;1.90;;
68608;SDS011;55581;46.718;7.690;2023-02-04T01:04:18;8.50;;;2.10;;
68608;SDS011;55581;46.718;7.690;2023-02-04T01:06:43;7.70;;;2.35;;
68608;SDS011;55581;46.718;7.690;2023-02-04T01:09:09;5.37;;;1.83;;
68608;SDS011;55581;46.718;7.690;2023-02-04T01:11:34;7.07;;;2.13;;
68608;SDS011;55581;46.718;7.690;2023-02-04T01:14:00;7.00;;;2.03;;
68608;SDS011;55581;46.718;7.690;2023-02-04T01:16:28;6.35;;;1.95;;
68608;SDS011;55581;46.718;7.690;2023-02-04T01:18:54;7.93;;;2.30;;
68608;SDS011;55581;46.718;7.690;2023-02-04T01:21:20;5.23;;;2.13;;
68608;SDS011;55581;46.718;7.690;2023-02-04T01:23:49;5.60;;;2.08;;
68608;SDS011;55581;46.718;7.690;2023-02-04T01:26:15;7.05;;;2.10;;
68608;SDS011;55581;46.718;7.690;2023-02-04T01:28:41;4.57;;;1.70;;
68608;SDS011;55581;46.718;7.690;2023-02-04T01:31:07;4.80;;;1.67;;
68608;SDS011;55581;46.718;7.690;2023-02-04T01:33:32;7.30;;;2.20;;
68608;SDS011;55581;46.718;7.690;2023-02-04T01:35:58;4.73;;;1.97;;
68608;SDS011;55581;46.718;7.690;2023-02-04T01:38:23;6.30;;;2.03;;
68608;SDS011;55581;46.718;7.690;2023-02-04T01:40:48;6.90;;;2.30;;
68608;SDS011;55581;46.718;7.690;2023-02-04T01:43:14;5.23;;;2.00;;
68608;SDS011;55581;46.718;7.690;2023-02-04T01:45:43;5.22;;;1.75;;
68608;SDS011;55581;46.718;7.690;2023-02-04T01:48:11;4.50;;;1.77;;
68608;SDS011;55581;46.718;7.690;2023-02-04T01:50:38;6.10;;;1.98;;
68608;SDS011;55581;46.718;7.690;2023-02-04T01:53:03;5.40;;;2.13;;
68608;SDS011;55581;46.718;7.690;2023-02-04T01:55:30;5.32;;;1.60;;
68608;SDS011;55581;46.718;7.690;2023-02-04T01:57:56;5.07;;;1.50;;
68608;SDS011;55581;46.718;7.690;2023-02-04T02:00:30;4.72;;;1.85;;
68608;SDS011;55581;46.718;7.690;2023-02-04T02:02:56;6.20;;;2.45;;
68608;SDS011;55581;46.718;7.690;2023-02-04T02:05:27;4.90;;;2.05;;
68608;SDS011;55581;46.718;7.690;2023-02-04T02:07:57;4.82;;;1.60;;
68608;SDS011;55581;46.718;7.690;2023-02-04T02:10:25;6.10;;;2.00;;
68608;SDS011;55581;46.718;7.690;2023-02-04T02:12:53;6.25;;;1.67;;
68608;SDS011;55581;46.718;7.690;2023-02-04T02:15:20;5.18;;;1.70;;
68608;SDS011;55581;46.718;7.690;2023-02-04T02:17:46;7.15;;;2.00;;
68608;SDS011;55581;46.718;7.690;2023-02-04T02:20:16;5.40;;;1.88;;
68608;SDS011;55581;46.718;7.690;2023-02-04T02:22:58;6.37;;;1.80;;
68608;SDS011;55581;46.718;7.690;2023-02-04T02:25:28;6.65;;;1.65;;
68608;SDS011;55581;46.718;7.690;2023-02-04T02:27:54;5.57;;;1.73;;
68608;SDS011;55581;46.718;7.690;2023-02-04T02:30:20;4.97;;;1.45;;
68608;SDS011;55581;46.718;7.690;2023-02-04T02:32:49;7.20;;;1.77;;
68608;SDS011;55581;46.718;7.690;2023-02-04T02:35:16;5.57;;;1.60;;
68608;SDS011;55581;46.718;7.690;2023-02-04T02:37:44;5.95;;;1.80;;
68608;SDS011;55581;46.718;7.690;2023-02-04T02:40:09;5.40;;;1.60;;
68608;SDS011;55581;46.718;7.690;2023-02-04T02:42:36;8.73;;;1.52;;
68608;SDS011;55581;46.718;7.690;2023-02-04T02:45:03;5.30;;;1.60;;
68608;SDS011;55581;46.718;7.690;2023-02-04T02:47:32;5.03;;;1.73;;
68608;SDS011;55581;46.718;7.690;2023-02-04T02:50:00;5.10;;;1.70;;
68608;SDS011;55581;46.718;7.690;2023-02-04T02:52:28;5.27;;;1.50;;
68608;SDS011;55581;46.718;7.690;2023-02-04T02:54:53;4.60;;;1.60;;
68608;SDS011;55581;46.718;7.690;2023-02-04T02:57:21;5.50;;;1.40;;
68608;SDS011;55581;46.718;7.690;2023-02-04T02:59:50;5.25;;;1.27;;
68608;SDS011;55581;46.718;7.690;2023-02-04T03:02:19;5.28;;;1.35;;
68608;SDS011;55581;46.718;7.690;2023-02-04T03:04:49;6.23;;;1.87;;
68608;SDS011;55581;46.718;7.690;2023-02-04T03:07:20;5.85;;;1.83;;
68608;SDS011;55581;46.718;7.690;2023-02-04T03:09:46;6.53;;;1.70;;
68608;SDS011;55581;46.718;7.690;2023-02-04T03:12:12;4.90;;;1.80;;
68608;SDS011;55581;46.718;7.690;2023-02-04T03:14:37;6.90;;;2.00;;
68608;SDS011;55581;46.718;7.690;2023-02-04T03:17:03;5.33;;;1.93;;
68608;SDS011;55581;46.718;7.690;2023-02-04T03:19:31;5.45;;;1.98;;
68608;SDS011;55581;46.718;7.690;2023-02-04T03:21:57;5.45;;;1.75;;
68608;SDS011;55581;46.718;7.690;2023-02-04T03:24:23;4.60;;;1.40;;
68608;SDS011;55581;46.718;7.690;2023-02-04T03:26:49;4.97;;;1.93;;
68608;SDS011;55581;46.718;7.690;2023-02-04T03:29:15;5.28;;;1.70;;
68608;SDS011;55581;46.718;7.690;2023-02-04T03:31:43;5.13;;;1.80;;
68608;SDS011;55581;46.718;7.690;2023-02-04T03:34:09;5.78;;;1.90;;
68608;SDS011;55581;46.718;7.690;2023-02-04T03:36:34;5.33;;;1.70;;
68608;SDS011;55581;46.718;7.690;2023-02-04T03:39:00;7.88;;;1.48;;
68608;SDS011;55581;46.718;7.690;2023-02-04T03:41:26;5.32;;;2.10;;
68608;SDS011;55581;46.718;7.690;2023-02-04T03:43:52;5.90;;;1.70;;
68608;SDS011;55581;46.718;7.690;2023-02-04T03:46:20;6.20;;;1.83;;
68608;SDS011;55581;46.718;7.690;2023-02-04T03:48:47;6.07;;;1.67;;
68608;SDS011;55581;46.718;7.690;2023-02-04T03:51:13;7.65;;;1.90;;
68608;SDS011;55581;46.718;7.690;2023-02-04T03:53:39;7.57;;;2.30;;
68608;SDS011;55581;46.718;7.690;2023-02-04T03:56:04;7.07;;;2.57;;
68608;SDS011;55581;46.718;7.690;2023-02-04T03:58:29;8.40;;;2.40;;
68608;SDS011;55581;46.718;7.690;2023-02-04T04:00:55;5.85;;;2.13;;
68608;SDS011;55581;46.718;7.690;2023-02-04T04:03:20;5.90;;;2.00;;
68608;SDS011;55581;46.718;7.690;2023-02-04T04:05:46;4.93;;;1.63;;
68608;SDS011;55581;46.718;7.690;2023-02-04T04:08:13;6.70;;;2.17;;
68608;SDS011;55581;46.718;7.690;2023-02-04T04:10:39;6.07;;;2.40;;
68608;SDS011;55581;46.718;7.690;2023-02-04T04:13:04;4.80;;;1.80;;
68608;SDS011;55581;46.718;7.690;2023-02-04T04:15:30;5.67;;;2.30;;
68608;SDS011;55581;46.718;7.690;2023-02-04T04:17:57;7.47;;;2.47;;
68608;SDS011;55581;46.718;7.690;2023-02-04T04:20:23;6.72;;;2.60;;
68608;SDS011;55581;46.718;7.690;2023-02-04T04:22:50;6.43;;;2.67;;
68608;SDS011;55581;46.718;7.690;2023-02-04T04:25:15;7.60;;;2.50;;
68608;SDS011;55581;46.718;7.690;2023-02-04T04:27:41;6.97;;;2.40;;
68608;SDS011;55581;46.718;7.690;2023-02-04T04:30:06;7.60;;;2.50;;
68608;SDS011;55581;46.718;7.690;2023-02-04T04:32:32;6.75;;;2.65;;
68608;SDS011;55581;46.718;7.690;2023-02-04T04:34:58;5.67;;;2.10;;
68608;SDS011;55581;46.718;7.690;2023-02-04T04:37:23;8.03;;;2.30;;
68608;SDS011;55581;46.718;7.690;2023-02-04T04:39:49;6.53;;;1.80;;
68608;SDS011;55581;46.718;7.690;2023-02-04T04:42:14;6.57;;;2.00;;
68608;SDS011;55581;46.718;7.690;2023-02-04T04:44:39;6.90;;;2.73;;
68608;SDS011;55581;46.718;7.690;2023-02-04T04:47:05;8.20;;;1.97;;
68608;SDS011;55581;46.718;7.690;2023-02-04T04:49:30;6.63;;;2.10;;
68608;SDS011;55581;46.718;7.690;2023-02-04T04:51:55;6.07;;;2.40;;
68608;SDS011;55581;46.718;7.690;2023-02-04T04:54:21;6.45;;;1.90;;
68608;SDS011;55581;46.718;7.690;2023-02-04T04:56:48;5.87;;;2.30;;
68608;SDS011;55581;46.718;7.690;2023-02-04T04:59:14;5.90;;;2.35;;
68608;SDS011;55581;46.718;7.690;2023-02-04T05:01:39;5.53;;;2.07;;
68608;SDS011;55581;46.718;7.690;2023-02-04T05:04:05;5.27;;;2.43;;
68608;SDS011;55581;46.718;7.690;2023-02-04T05:06:31;7.22;;;2.00;;
68608;SDS011;55581;46.718;7.690;2023-02-04T05:08:57;6.80;;;2.20;;
68608;SDS011;55581;46.718;7.690;2023-02-04T05:11:22;6.50;;;2.07;;
68608;SDS011;55581;46.718;7.690;2023-02-04T05:13:47;5.00;;;2.00;;
68608;SDS011;55581;46.718;7.690;2023-02-04T05:16:13;6.57;;;2.30;;
68608;SDS011;55581;46.718;7.690;2023-02-04T05:18:39;7.07;;;2.30;;
68608;SDS011;55581;46.718;7.690;2023-02-04T05:21:05;7.75;;;2.50;;
68608;SDS011;55581;46.718;7.690;2023-02-04T05:23:31;6.73;;;2.17;;
68608;SDS011;55581;46.718;7.690;2023-02-04T05:25:57;7.05;;;2.30;;
68608;SDS011;55581;46.718;7.690;2023-02-04T05:28:22;6.37;;;1.87;;
68608;SDS011;55581;46.718;7.690;2023-02-04T05:30:48;7.00;;;2.10;;
68608;SDS011;55581;46.718;7.690;2023-02-04T05:33:16;8.53;;;2.03;;
68608;SDS011;55581;46.718;7.690;2023-02-04T05:35:43;6.30;;;1.92;;
68608;SDS011;55581;46.718;7.690;2023-02-04T05:38:09;4.60;;;1.87;;
68608;SDS011;55581;46.718;7.690;2023-02-04T05:40:34;5.20;;;1.70;;
68608;SDS011;55581;46.718;7.690;2023-02-04T05:43:02;4.50;;;1.40;;
68608;SDS011;55581;46.718;7.690;2023-02-04T05:45:28;5.15;;;1.85;;
68608;SDS011;55581;46.718;7.690;2023-02-04T05:47:54;8.60;;;2.30;;
68608;SDS011;55581;46.718;7.690;2023-02-04T05:50:19;5.83;;;2.40;;
68608;SDS011;55581;46.718;7.690;2023-02-04T05:52:47;4.70;;;1.58;;
68608;SDS011;55581;46.718;7.690;2023-02-04T05:55:13;4.87;;;1.30;;
68608;SDS011;55581;46.718;7.690;2023-02-04T05:57:38;5.63;;;1.90;;
68608;SDS011;55581;46.718;7.690;2023-02-04T06:00:06;5.77;;;1.70;;
68608;SDS011;55581;46.718;7.690;2023-02-04T06:02:32;6.32;;;1.75;;
68608;SDS011;55581;46.718;7.690;2023-02-04T06:05:00;4.30;;;1.40;;
68608;SDS011;55581;46.718;7.690;2023-02-04T06:07:25;5.05;;;1.60;;
68608;SDS011;55581;46.718;7.690;2023-02-04T06:09:53;4.47;;;1.80;;
68608;SDS011;55581;46.718;7.690;2023-02-04T06:12:21;5.80;;;1.60;;
68608;SDS011;55581;46.718;7.690;2023-02-04T06:14:46;4.55;;;1.45;;
68608;SDS011;55581;46.718;7.690;2023-02-04T06:17:14;5.20;;;1.77;;
68608;SDS011;55581;46.718;7.690;2023-02-04T06:19:42;6.32;;;1.88;;
68608;SDS011;55581;46.718;7.690;2023-02-04T06:22:07;5.80;;;1.63;;
68608;SDS011;55581;46.718;7.690;2023-02-04T06:24:33;5.87;;;1.57;;
68608;SDS011;55581;46.718;7.690;2023-02-04T06:26:58;5.30;;;1.60;;
68608;SDS011;55581;46.718;7.690;2023-02-04T06:29:24;4.50;;;1.70;;
68608;SDS011;55581;46.718;7.690;2023-02-04T06:31:51;4.15;;;1.50;;
68608;SDS011;55581;46.718;7.690;2023-02-04T06:34:17;5.40;;;1.80;;
68608;SDS011;55581;46.718;7.690;2023-02-04T06:36:42;6.93;;;1.67;;
68608;SDS011;55581;46.718;7.690;2023-02-04T06:39:07;4.73;;;1.67;;
68608;SDS011;55581;46.718;7.690;2023-02-04T06:41:33;5.97;;;1.60;;
68608;SDS011;55581;46.718;7.690;2023-02-04T06:43:58;8.13;;;1.67;;
68608;SDS011;55581;46.718;7.690;2023-02-04T06:46:24;5.37;;;1.80;;
68608;SDS011;55581;46.718;7.690;2023-02-04T06:48:49;9.30;;;4.10;;
68608;SDS011;55581;46.718;7.690;2023-02-04T06:51:17;7.47;;;2.23;;
68608;SDS011;55581;46.718;7.690;2023-02-04T06:53:42;6.93;;;2.60;;
68608;SDS011;55581;46.718;7.690;2023-02-04T06:56:09;10.98;;;5.05;;
68608;SDS011;55581;46.718;7.690;2023-02-04T06:58:35;5.28;;;1.58;;
68608;SDS011;55581;46.718;7.690;2023-02-04T07:01:01;4.60;;;1.40;;
68608;SDS011;55581;46.718;7.690;2023-02-04T07:03:30;4.63;;;1.33;;
68608;SDS011;55581;46.718;7.690;2023-02-04T07:05:55;5.07;;;1.60;;
68608;SDS011;55581;46.718;7.690;2023-02-04T07:08:21;5.80;;;1.90;;
68608;SDS011;55581;46.718;7.690;2023-02-04T07:10:46;4.93;;;1.70;;
68608;SDS011;55581;46.718;7.690;2023-02-04T07:13:12;7.97;;;1.60;;
68608;SDS011;55581;46.718;7.690;2023-02-04T07:15:40;7.85;;;1.83;;
68608;SDS011;55581;46.718;7.690;2023-02-04T07:18:05;5.53;;;1.90;;
68608;SDS011;55581;46.718;7.690;2023-02-04T07:20:31;7.68;;;1.90;;
68608;SDS011;55581;46.718;7.690;2023-02-04T07:22:56;7.73;;;2.70;;
68608;SDS011;55581;46.718;7.690;2023-02-04T07:25:22;5.50;;;2.00;;
68608;SDS011;55581;46.718;7.690;2023-02-04T07:27:47;5.77;;;2.07;;
68608;SDS011;55581;46.718;7.690;2023-02-04T07:30:15;10.50;;;2.28;;
68608;SDS011;55581;46.718;7.690;2023-02-04T07:32:41;5.20;;;2.40;;
68608;SDS011;55581;46.718;7.690;2023-02-04T07:35:06;8.83;;;3.40;;
68608;SDS011;55581;46.718;7.690;2023-02-04T07:37:32;5.78;;;2.55;;
68608;SDS011;55581;46.718;7.690;2023-02-04T07:39:59;6.37;;;2.30;;
68608;SDS011;55581;46.718;7.690;2023-02-04T07:42:25;4.82;;;2.03;;
68608;SDS011;55581;46.718;7.690;2023-02-04T07:44:53;5.85;;;2.13;;
68608;SDS011;55581;46.718;7.690;2023-02-04T07:47:18;6.13;;;2.03;;
68608;SDS011;55581;46.718;7.690;2023-02-04T07:49:46;5.28;;;1.95;;
68608;SDS011;55581;46.718;7.690;2023-02-04T07:52:12;6.10;;;2.80;;
68608;SDS011;55581;46.718;7.690;2023-02-04T07:54:37;6.60;;;2.73;;
68608;SDS011;55581;46.718;7.690;2023-02-04T07:57:05;6.55;;;2.30;;
68608;SDS011;55581;46.718;7.690;2023-02-04T07:59:30;5.87;;;1.73;;
68608;SDS011;55581;46.718;7.690;2023-02-04T08:01:55;5.30;;;2.17;;
68608;SDS011;55581;46.718;7.690;2023-02-04T08:04:21;7.60;;;2.50;;
68608;SDS011;55581;46.718;7.690;2023-02-04T08:06:46;7.47;;;2.87;;
68608;SDS011;55581;46.718;7.690;2023-02-04T08:09:14;5.53;;;2.27;;
68608;SDS011;55581;46.718;7.690;2023-02-04T08:11:39;7.60;;;2.43;;
68608;SDS011;55581;46.718;7.690;2023-02-04T08:14:04;5.20;;;2.03;;
68608;SDS011;55581;46.718;7.690;2023-02-04T08:16:30;6.70;;;2.57;;
68608;SDS011;55581;46.718;7.690;2023-02-04T08:18:55;6.30;;;2.70;;
68608;SDS011;55581;46.718;7.690;2023-02-04T08:21:20;7.73;;;2.80;;
68608;SDS011;55581;46.718;7.690;2023-02-04T08:23:46;7.20;;;2.78;;
68608;SDS011;55581;46.718;7.690;2023-02-04T08:26:14;6.60;;;2.50;;
68608;SDS011;55581;46.718;7.690;2023-02-04T08:28:39;7.28;;;2.70;;
68608;SDS011;55581;46.718;7.690;2023-02-04T08:31:07;5.60;;;2.33;;
68608;SDS011;55581;46.718;7.690;2023-02-04T08:33:38;6.72;;;2.65;;
68608;SDS011;55581;46.718;7.690;2023-02-04T08:36:04;6.50;;;2.45;;
68608;SDS011;55581;46.718;7.690;2023-02-04T08:38:30;10.07;;;2.75;;
68608;SDS011;55581;46.718;7.690;2023-02-04T08:40:56;8.40;;;3.17;;
68608;SDS011;55581;46.718;7.690;2023-02-04T08:43:21;6.53;;;2.20;;
68608;SDS011;55581;46.718;7.690;2023-02-04T08:45:47;4.97;;;2.30;;
68608;SDS011;55581;46.718;7.690;2023-02-04T08:48:14;5.70;;;2.20;;
68608;SDS011;55581;46.718;7.690;2023-02-04T08:50:40;6.03;;;2.83;;
68608;SDS011;55581;46.718;7.690;2023-02-04T08:53:05;4.97;;;2.23;;
68608;SDS011;55581;46.718;7.690;2023-02-04T08:55:35;6.63;;;2.78;;
68608;SDS011;55581;46.718;7.690;2023-02-04T08:58:01;8.20;;;2.37;;
68608;SDS011;55581;46.718;7.690;2023-02-04T09:00:27;6.57;;;2.45;;
68608;SDS011;55581;46.718;7.690;2023-02-04T09:02:52;6.18;;;2.78;;
68608;SDS011;55581;46.718;7.690;2023-02-04T09:05:18;7.33;;;2.70;;
68608;SDS011;55581;46.718;7.690;2023-02-04T09:07:46;7.93;;;2.70;;
68608;SDS011;55581;46.718;7.690;2023-02-04T09:10:11;5.82;;;2.40;;
68608;SDS011;55581;46.718;7.690;2023-02-04T09:12:37;5.73;;;2.47;;
68608;SDS011;55581;46.718;7.690;2023-02-04T09:15:02;6.87;;;3.20;;
68608;SDS011;55581;46.718;7.690;2023-02-04T09:17:29;6.20;;;2.50;;
68608;SDS011;55581;46.718;7.690;2023-02-04T09:19:54;7.27;;;2.80;;
68608;SDS011;55581;46.718;7.690;2023-02-04T09:22:20;5.87;;;2.43;;
68608;SDS011;55581;46.718;7.690;2023-02-04T09:24:47;7.07;;;2.88;;
68608;SDS011;55581;46.718;7.690;2023-02-04T09:27:13;7.57;;;3.17;;
68608;SDS011;55581;46.718;7.690;2023-02-04T09:29:38;6.33;;;2.63;;
68608;SDS011;55581;46.718;7.690;2023-02-04T09:32:04;6.57;;;2.50;;
68608;SDS011;55581;46.718;7.690;2023-02-04T09:34:29;7.37;;;2.80;;
68608;SDS011;55581;46.718;7.690;2023-02-04T09:36:54;9.87;;;4.03;;
68608;SDS011;55581;46.718;7.690;2023-02-04T09:39:20;9.03;;;3.50;;
68608;SDS011;55581;46.718;7.690;2023-02-04T09:41:45;9.30;;;2.97;;
68608;SDS011;55581;46.718;7.690;2023-02-04T09:44:17;7.37;;;3.30;;
68608;SDS011;55581;46.718;7.690;2023-02-04T09:46:48;5.88;;;2.58;;
68608;SDS011;55581;46.718;7.690;2023-02-04T09:49:16;5.20;;;2.33;;
68608;SDS011;55581;46.718;7.690;2023-02-04T09:51:41;5.90;;;2.22;;
68608;SDS011;55581;46.718;7.690;2023-02-04T09:54:12;7.68;;;2.55;;
68608;SDS011;55581;46.718;7.690;2023-02-04T09:56:39;6.47;;;2.63;;
68608;SDS011;55581;46.718;7.690;2023-02-04T09:59:09;5.93;;;2.35;;
68608;SDS011;55581;46.718;7.690;2023-02-04T10:01:42;6.40;;;2.45;;
68608;SDS011;55581;46.718;7.690;2023-02-04T10:04:09;8.55;;;3.63;;
68608;SDS011;55581;46.718;7.690;2023-02-04T10:06:38;7.73;;;3.67;;
68608;SDS011;55581;46.718;7.690;2023-02-04T10:09:04;6.88;;;2.90;;
68608;SDS011;55581;46.718;7.690;2023-02-04T10:11:31;4.75;;;2.20;;
68608;SDS011;55581;46.718;7.690;2023-02-04T10:14:00;5.63;;;2.40;;
68608;SDS011;55581;46.718;7.690;2023-02-04T10:16:29;7.87;;;2.93;;
68608;SDS011;55581;46.718;7.690;2023-02-04T10:19:06;8.68;;;3.35;;
68608;SDS011;55581;46.718;7.690;2023-02-04T10:21:36;7.27;;;2.53;;
68608;SDS011;55581;46.718;7.690;2023-02-04T10:24:02;5.90;;;2.50;;
68608;SDS011;55581;46.718;7.690;2023-02-04T10:26:31;8.02;;;3.97;;
68608;SDS011;55581;46.718;7.690;2023-02-04T10:29:00;6.30;;;2.70;;
68608;SDS011;55581;46.718;7.690;2023-02-04T10:31:28;9.13;;;2.67;;
68608;SDS011;55581;46.718;7.690;2023-02-04T10:36:50;6.50;;;2.47;;
68608;SDS011;55581;46.718;7.690;2023-02-04T10:39:18;9.07;;;2.80;;
68608;SDS011;55581;46.718;7.690;2023-02-04T10:41:50;7.22;;;2.78;;
68608;SDS011;55581;46.718;7.690;2023-02-04T10:44:16;5.90;;;2.30;;
68608;SDS011;55581;46.718;7.690;2023-02-04T10:46:47;6.57;;;2.78;;
68608;SDS011;55581;46.718;7.690;2023-02-04T10:49:19;6.97;;;2.97;;
68608;SDS011;55581;46.718;7.690;2023-02-04T10:51:49;7.07;;;2.83;;
68608;SDS011;55581;46.718;7.690;2023-02-04T10:54:17;6.50;;;2.58;;
68608;SDS011;55581;46.718;7.690;2023-02-04T10:59:24;6.72;;;3.10;;
68608;SDS011;55581;46.718;7.690;2023-02-04T11:01:52;10.38;;;3.72;;
68608;SDS011;55581;46.718;7.690;2023-02-04T11:04:20;8.18;;;3.00;;
68608;SDS011;55581;46.718;7.690;2023-02-04T11:06:45;8.13;;;3.13;;
68608;SDS011;55581;46.718;7.690;2023-02-04T11:09:14;5.70;;;1.90;;
68608;SDS011;55581;46.718;7.690;2023-02-04T11:11:44;4.85;;;1.30;;
68608;SDS011;55581;46.718;7.690;2023-02-04T11:14:23;5.10;;;2.30;;
68608;SDS011;55581;46.718;7.690;2023-02-04T11:16:52;6.68;;;2.60;;
68608;SDS011;55581;46.718;7.690;2023-02-04T11:19:29;7.97;;;2.63;;
68608;SDS011;55581;46.718;7.690;2023-02-04T11:22:03;5.37;;;2.13;;
68608;SDS011;55581;46.718;7.690;2023-02-04T11:24:32;7.05;;;2.42;;
68608;SDS011;55581;46.718;7.690;2023-02-04T11:27:18;7.07;;;2.55;;
68608;SDS011;55581;46.718;7.690;2023-02-04T11:29:44;6.97;;;2.90;;
68608;SDS011;55581;46.718;7.690;2023-02-04T11:37:37;5.47;;;2.45;;
68608;SDS011;55581;46.718;7.690;2023-02-04T11:43:11;7.88;;;2.92;;
68608;SDS011;55581;46.718;7.690;2023-02-04T11:45:40;5.43;;;2.60;;
68608;SDS011;55581;46.718;7.690;2023-02-04T11:48:24;6.37;;;2.70;;
68608;SDS011;55581;46.718;7.690;2023-02-04T11:50:56;7.50;;;3.13;;
68608;SDS011;55581;46.718;7.690;2023-02-04T11:53:23;7.30;;;2.88;;
68608;SDS011;55581;46.718;7.690;2023-02-04T11:55:52;7.78;;;2.80;;
68608;SDS011;55581;46.718;7.690;2023-02-04T11:58:19;5.33;;;2.60;;
68608;SDS011;55581;46.718;7.690;2023-02-04T12:00:45;6.60;;;3.33;;
68608;SDS011;55581;46.718;7.690;2023-02-04T12:03:31;7.22;;;3.17;;
68608;SDS011;55581;46.718;7.690;2023-02-04T12:06:00;7.50;;;2.97;;
68608;SDS011;55581;46.718;7.690;2023-02-04T12:08:29;7.93;;;3.35;;
68608;SDS011;55581;46.718;7.690;2023-02-04T12:13:32;6.75;;;2.88;;
68608;SDS011;55581;46.718;7.690;2023-02-04T12:16:02;8.10;;;2.75;;
68608;SDS011;55581;46.718;7.690;2023-02-04T12:18:30;7.72;;;3.60;;
68608;SDS011;55581;46.718;7.690;2023-02-04T12:20:56;9.90;;;2.95;;
68608;SDS011;55581;46.718;7.690;2023-02-04T12:23:23;6.60;;;3.30;;
68608;SDS011;55581;46.718;7.690;2023-02-04T12:25:49;6.30;;;2.75;;
68608;SDS011;55581;46.718;7.690;2023-02-04T12:28:15;7.53;;;3.05;;
68608;SDS011;55581;46.718;7.690;2023-02-04T12:30:40;6.77;;;3.27;;
68608;SDS011;55581;46.718;7.690;2023-02-04T12:33:06;8.23;;;3.33;;
68608;SDS011;55581;46.718;7.690;2023-02-04T12:35:32;6.93;;;3.58;;
68608;SDS011;55581;46.718;7.690;2023-02-04T12:37:58;7.07;;;3.30;;
68608;SDS011;55581;46.718;7.690;2023-02-04T12:40:23;7.07;;;3.20;;
68608;SDS011;55581;46.718;7.690;2023-02-04T12:42:49;7.20;;;2.90;;
68608;SDS011;55581;46.718;7.690;2023-02-04T12:45:15;6.80;;;2.93;;
68608;SDS011;55581;46.718;7.690;2023-02-04T12:47:41;7.68;;;2.85;;
68608;SDS011;55581;46.718;7.690;2023-02-04T12:50:09;5.80;;;2.70;;
68608;SDS011;55581;46.718;7.690;2023-02-04T12:52:35;9.93;;;2.97;;
68608;SDS011;55581;46.718;7.690;2023-02-04T12:55:02;6.97;;;3.00;;
68608;SDS011;55581;46.718;7.690;2023-02-04T12:57:31;6.25;;;3.05;;
68608;SDS011;55581;46.718;7.690;2023-02-04T12:59:57;8.83;;;3.23;;
68608;SDS011;55581;46.718;7.690;2023-02-04T13:02:25;6.93;;;3.22;;
68608;SDS011;55581;46.718;7.690;2023-02-04T13:04:54;7.53;;;2.70;;
68608;SDS011;55581;46.718;7.690;2023-02-04T13:07:19;6.43;;;3.33;;
68608;SDS011;55581;46.718;7.690;2023-02-04T13:09:45;6.00;;;3.00;;
68608;SDS011;55581;46.718;7.690;2023-02-04T13:12:11;6.53;;;3.40;;
68608;SDS011;55581;46.718;7.690;2023-02-04T13:14:42;5.55;;;2.53;;
68608;SDS011;55581;46.718;7.690;2023-02-04T13:17:08;7.90;;;3.03;;
68608;SDS011;55581;46.718;7.690;2023-02-04T13:19:34;7.23;;;3.00;;
68608;SDS011;55581;46.718;7.690;2023-02-04T13:22:00;8.23;;;3.72;;
68608;SDS011;55581;46.718;7.690;2023-02-04T13:24:26;6.60;;;3.28;;
68608;SDS011;55581;46.718;7.690;2023-02-04T13:26:54;11.20;;;6.00;;
68608;SDS011;55581;46.718;7.690;2023-02-04T13:29:20;10.20;;;3.95;;
68608;SDS011;55581;46.718;7.690;2023-02-04T13:31:46;6.20;;;3.13;;
68608;SDS011;55581;46.718;7.690;2023-02-04T13:34:11;10.00;;;3.10;;
68608;SDS011;55581;46.718;7.690;2023-02-04T13:36:37;8.13;;;4.30;;
68608;SDS011;55581;46.718;7.690;2023-02-04T13:39:03;5.93;;;3.35;;
68608;SDS011;55581;46.718;7.690;2023-02-04T13:41:31;7.15;;;3.00;;
68608;SDS011;55581;46.718;7.690;2023-02-04T13:43:56;7.43;;;3.27;;
68608;SDS011;55581;46.718;7.690;2023-02-04T13:46:22;7.05;;;2.95;;
68608;SDS011;55581;46.718;7.690;2023-02-04T13:48:48;6.97;;;2.93;;
68608;SDS011;55581;46.718;7.690;2023-02-04T13:51:14;5.72;;;2.83;;
68608;SDS011;55581;46.718;7.690;2023-02-04T13:53:43;9.15;;;3.28;;
68608;SDS011;55581;46.718;7.690;2023-02-04T13:56:08;7.13;;;2.97;;
68608;SDS011;55581;46.718;7.690;2023-02-04T13:58:33;5.70;;;2.37;;
68608;SDS011;55581;46.718;7.690;2023-02-04T14:00:59;6.18;;;2.70;;
68608;SDS011;55581;46.718;7.690;2023-02-04T14:03:25;6.13;;;2.77;;
68608;SDS011;55581;46.718;7.690;2023-02-04T14:05:51;5.78;;;2.60;;
68608;SDS011;55581;46.718;7.690;2023-02-04T14:08:17;4.95;;;2.38;;
68608;SDS011;55581;46.718;7.690;2023-02-04T14:10:43;5.82;;;2.42;;
68608;SDS011;55581;46.718;7.690;2023-02-04T14:13:09;5.47;;;2.60;;
68608;SDS011;55581;46.718;7.690;2023-02-04T14:15:34;5.17;;;2.20;;
68608;SDS011;55581;46.718;7.690;2023-02-04T14:18:02;10.45;;;2.88;;
68608;SDS011;55581;46.718;7.690;2023-02-04T14:20:28;5.10;;;2.13;;
68608;SDS011;55581;46.718;7.690;2023-02-04T14:22:54;5.67;;;2.13;;
68608;SDS011;55581;46.718;7.690;2023-02-04T14:25:19;6.55;;;2.50;;
68608;SDS011;55581;46.718;7.690;2023-02-04T14:27:48;9.40;;;2.77;;
68608;SDS011;55581;46.718;7.690;2023-02-04T14:32:43;5.13;;;2.40;;
68608;SDS011;55581;46.718;7.690;2023-02-04T14:35:08;6.72;;;2.70;;
68608;SDS011;55581;46.718;7.690;2023-02-04T14:37:34;6.33;;;3.03;;
68608;SDS011;55581;46.718;7.690;2023-02-04T14:39:59;6.93;;;2.90;;
68608;SDS011;55581;46.718;7.690;2023-02-04T14:42:25;5.67;;;2.63;;
68608;SDS011;55581;46.718;7.690;2023-02-04T14:44:50;6.20;;;2.75;;
68608;SDS011;55581;46.718;7.690;2023-02-04T14:47:18;6.40;;;2.90;;
68608;SDS011;55581;46.718;7.690;2023-02-04T14:49:43;6.43;;;2.95;;
68608;SDS011;55581;46.718;7.690;2023-02-04T14:52:08;5.23;;;2.73;;
68608;SDS011;55581;46.718;7.690;2023-02-04T14:54:35;9.40;;;3.30;;
68608;SDS011;55581;46.718;7.690;2023-02-04T14:57:00;6.70;;;3.30;;
68608;SDS011;55581;46.718;7.690;2023-02-04T14:59:26;6.93;;;3.00;;
68608;SDS011;55581;46.718;7.690;2023-02-04T15:01:52;7.43;;;3.30;;
68608;SDS011;55581;46.718;7.690;2023-02-04T15:04:18;6.47;;;3.05;;